createdAt,value
2022-12-06T00:00:42.895Z,0.00
2022-12-06T00:01:42.957Z,0.00
2022-12-06T00:02:42.896Z,0.00
2022-12-06T00:03:42.945Z,0.00
2022-12-06T00:04:42.895Z,0.00
2022-12-06T00:05:46.261Z,0.00
2022-12-06T00:06:42.863Z,0.00
2022-12-06T00:07:42.923Z,0.00
2022-12-06T00:08:42.853Z,0.00
2022-12-06T00:09:42.870Z,0.00
2022-12-06T00:10:42.841Z,0.00
2022-12-06T00:11:42.837Z,0.00
2022-12-06T00:12:42.835Z,0.00
2022-12-06T00:13:42.825Z,0.00
2022-12-06T00:14:42.838Z,0.00
2022-12-06T00:15:42.801Z,0.00
2022-12-06T00:16:42.842Z,0.00
2022-12-06T00:17:43.227Z,0.00
2022-12-06T00:18:42.791Z,0.00
2022-12-06T00:19:42.788Z,0.00
2022-12-06T00:20:42.789Z,0.00
2022-12-06T00:21:42.777Z,0.00
2022-12-06T00:22:42.757Z,0.00
2022-12-06T00:23:42.752Z,0.00
2022-12-06T00:24:42.769Z,0.00
2022-12-06T00:25:42.752Z,0.00
2022-12-06T00:26:42.735Z,0.00
2022-12-06T00:27:42.729Z,0.00
2022-12-06T00:28:42.713Z,0.00
2022-12-06T00:29:42.737Z,0.00
2022-12-06T00:30:42.703Z,0.00
2022-12-06T00:31:42.766Z,0.00
2022-12-06T00:32:42.692Z,0.00
2022-12-06T00:33:42.705Z,0.00
2022-12-06T00:34:42.675Z,0.00
2022-12-06T00:35:42.707Z,0.00
2022-12-06T00:36:42.668Z,0.00
2022-12-06T00:37:42.663Z,0.00
2022-12-06T00:38:42.707Z,0.00
2022-12-06T00:39:42.653Z,0.00
2022-12-06T00:40:42.651Z,0.00
2022-12-06T00:41:42.653Z,0.00
2022-12-06T00:42:42.639Z,0.00
2022-12-06T00:43:42.622Z,0.00
2022-12-06T00:44:42.629Z,0.00
2022-12-06T00:45:42.625Z,0.00
2022-12-06T00:46:42.607Z,0.00
2022-12-06T00:47:42.618Z,0.00
2022-12-06T00:48:42.588Z,0.00
2022-12-06T00:49:42.587Z,0.00
2022-12-06T00:50:42.587Z,0.00
2022-12-06T00:51:42.575Z,0.00
2022-12-06T00:52:42.620Z,0.00
2022-12-06T00:53:42.565Z,0.00
2022-12-06T00:54:42.558Z,0.00
2022-12-06T00:55:42.544Z,0.00
2022-12-06T00:56:42.549Z,0.00
2022-12-06T00:57:42.535Z,0.00
2022-12-06T00:58:42.534Z,0.00
2022-12-06T00:59:42.527Z,0.00
2022-12-06T01:00:42.514Z,0.00
2022-12-06T01:01:42.566Z,0.00
2022-12-06T01:02:42.525Z,0.00
2022-12-06T01:03:42.543Z,0.00
2022-12-06T01:04:42.504Z,0.00
2022-12-06T01:05:42.481Z,0.00
2022-12-06T01:06:42.491Z,0.00
2022-12-06T01:07:42.517Z,0.00
2022-12-06T01:08:42.460Z,0.00
2022-12-06T01:09:42.476Z,0.00
2022-12-06T01:10:42.442Z,0.00
2022-12-06T01:11:42.438Z,0.00
2022-12-06T01:12:42.423Z,0.00
2022-12-06T01:13:42.434Z,0.00
2022-12-06T01:14:42.424Z,0.00
2022-12-06T01:15:42.465Z,0.00
2022-12-06T01:16:42.498Z,0.00
2022-12-06T01:17:42.395Z,0.00
2022-12-06T01:18:42.388Z,0.00
2022-12-06T01:19:42.383Z,0.00
2022-12-06T01:20:42.380Z,0.00
2022-12-06T01:21:42.412Z,0.00
2022-12-06T01:22:42.373Z,0.00
2022-12-06T01:23:42.373Z,0.00
2022-12-06T01:24:42.357Z,0.00
2022-12-06T01:25:42.355Z,0.00
2022-12-06T01:26:42.344Z,0.00
2022-12-06T01:27:42.360Z,0.00
2022-12-06T01:28:42.349Z,0.00
2022-12-06T01:29:42.330Z,0.00
2022-12-06T01:30:42.398Z,0.00
2022-12-06T01:31:42.314Z,0.00
2022-12-06T01:32:42.314Z,0.00
2022-12-06T01:33:42.335Z,0.00
2022-12-06T01:34:42.290Z,0.00
2022-12-06T01:35:42.297Z,0.00
2022-12-06T01:36:42.292Z,0.00
2022-12-06T01:37:42.294Z,0.00
2022-12-06T01:38:42.266Z,0.00
2022-12-06T01:39:42.270Z,0.00
2022-12-06T01:40:42.259Z,0.00
2022-12-06T01:41:42.263Z,0.00
2022-12-06T01:42:42.240Z,0.00
2022-12-06T01:43:42.232Z,0.00
2022-12-06T01:44:42.234Z,0.00
2022-12-06T01:45:42.270Z,0.00
2022-12-06T01:46:42.255Z,0.00
2022-12-06T01:47:42.221Z,0.00
2022-12-06T01:48:42.195Z,0.00
2022-12-06T01:49:42.206Z,0.00
2022-12-06T01:50:42.196Z,0.00
2022-12-06T01:51:42.194Z,0.00
2022-12-06T01:52:42.165Z,0.00
2022-12-06T01:53:42.164Z,0.00
2022-12-06T01:54:42.160Z,0.00
2022-12-06T01:55:42.170Z,0.00
2022-12-06T01:56:42.146Z,0.00
2022-12-06T01:57:42.148Z,0.00
2022-12-06T01:58:42.130Z,0.00
2022-12-06T01:59:42.127Z,0.00
2022-12-06T02:00:42.129Z,0.00
2022-12-06T02:01:42.218Z,0.00
2022-12-06T02:02:42.189Z,0.00
2022-12-06T02:03:42.107Z,0.00
2022-12-06T02:04:42.112Z,0.00
2022-12-06T02:05:42.083Z,0.00
2022-12-06T02:06:42.082Z,0.00
2022-12-06T02:07:42.141Z,0.00
2022-12-06T02:08:42.058Z,0.00
2022-12-06T02:09:42.065Z,0.00
2022-12-06T02:10:42.076Z,0.00
2022-12-06T02:11:42.044Z,0.00
2022-12-06T02:12:42.062Z,0.00
2022-12-06T02:13:42.040Z,0.00
2022-12-06T02:14:42.059Z,0.00
2022-12-06T02:15:42.022Z,0.00
2022-12-06T02:16:42.069Z,0.00
2022-12-06T02:17:42.019Z,0.00
2022-12-06T02:18:42.023Z,0.00
2022-12-06T02:19:42.003Z,0.00
2022-12-06T02:20:41.987Z,0.00
2022-12-06T02:21:41.984Z,0.00
2022-12-06T02:22:41.974Z,0.00
2022-12-06T02:23:41.986Z,0.00
2022-12-06T02:24:41.958Z,0.00
2022-12-06T02:25:43.529Z,0.00
2022-12-06T02:26:41.951Z,0.00
2022-12-06T02:27:41.939Z,0.00
2022-12-06T02:28:41.936Z,0.00
2022-12-06T02:29:41.949Z,0.00
2022-12-06T02:30:41.991Z,0.00
2022-12-06T02:31:41.911Z,0.00
2022-12-06T02:32:41.925Z,0.00
2022-12-06T02:33:41.911Z,0.00
2022-12-06T02:34:41.907Z,0.00
2022-12-06T02:35:41.892Z,0.00
2022-12-06T02:36:41.894Z,0.00
2022-12-06T02:37:41.874Z,0.00
2022-12-06T02:38:41.890Z,0.00
2022-12-06T02:39:41.867Z,0.00
2022-12-06T02:40:41.872Z,0.00
2022-12-06T02:41:41.854Z,0.00
2022-12-06T02:42:41.838Z,0.00
2022-12-06T02:43:41.838Z,0.00
2022-12-06T02:44:41.824Z,0.00
2022-12-06T02:45:41.846Z,0.00
2022-12-06T02:46:41.872Z,0.00
2022-12-06T02:47:41.816Z,0.00
2022-12-06T02:48:41.824Z,0.00
2022-12-06T02:49:41.798Z,0.00
2022-12-06T02:50:41.785Z,0.00
2022-12-06T02:51:41.789Z,0.00
2022-12-06T02:52:41.782Z,0.00
2022-12-06T02:53:41.778Z,0.00
2022-12-06T02:54:41.801Z,0.00
2022-12-06T02:55:41.767Z,0.00
2022-12-06T02:56:41.776Z,0.00
2022-12-06T02:57:41.751Z,0.00
2022-12-06T02:58:41.759Z,0.00
2022-12-06T02:59:41.739Z,0.00
2022-12-06T03:00:41.729Z,0.00
2022-12-06T03:01:41.780Z,0.00
2022-12-06T03:02:41.870Z,0.00
2022-12-06T03:03:41.728Z,0.00
2022-12-06T03:04:41.709Z,0.00
2022-12-06T03:05:41.700Z,0.00
2022-12-06T03:06:41.734Z,0.00
2022-12-06T03:07:41.730Z,0.00
2022-12-06T03:08:41.677Z,0.00
2022-12-06T03:09:41.687Z,0.00
2022-12-06T03:10:41.668Z,0.00
2022-12-06T03:11:41.665Z,0.00
2022-12-06T03:12:41.652Z,0.00
2022-12-06T03:13:41.649Z,0.00
2022-12-06T03:14:41.655Z,0.00
2022-12-06T03:15:41.681Z,0.00
2022-12-06T03:16:41.617Z,0.00
2022-12-06T03:17:41.622Z,0.00
2022-12-06T03:18:41.608Z,0.00
2022-12-06T03:19:41.607Z,0.00
2022-12-06T03:20:41.611Z,0.00
2022-12-06T03:21:41.603Z,0.00
2022-12-06T03:22:41.584Z,0.00
2022-12-06T03:23:41.587Z,0.00
2022-12-06T03:24:41.576Z,0.00
2022-12-06T03:25:41.593Z,0.00
2022-12-06T03:26:41.558Z,0.00
2022-12-06T03:27:41.562Z,0.00
2022-12-06T03:28:41.547Z,0.00
2022-12-06T03:29:41.544Z,0.00
2022-12-06T03:30:41.568Z,0.00
2022-12-06T03:31:41.542Z,0.00
2022-12-06T03:32:41.523Z,0.00
2022-12-06T03:33:41.517Z,0.00
2022-12-06T03:34:41.511Z,0.00
2022-12-06T03:35:41.506Z,0.00
2022-12-06T03:36:41.512Z,0.00
2022-12-06T03:37:41.492Z,0.00
2022-12-06T03:38:41.483Z,0.00
2022-12-06T03:39:41.482Z,0.00
2022-12-06T03:40:41.487Z,0.00
2022-12-06T03:41:41.466Z,0.00
2022-12-06T03:42:41.452Z,0.00
2022-12-06T03:43:41.453Z,0.00
2022-12-06T03:44:41.438Z,0.00
2022-12-06T03:45:41.484Z,0.00
2022-12-06T03:46:41.482Z,0.00
2022-12-06T03:47:41.429Z,0.00
2022-12-06T03:48:41.420Z,0.00
2022-12-06T03:49:41.415Z,0.00
2022-12-06T03:50:41.407Z,0.00
2022-12-06T03:51:41.397Z,0.00
2022-12-06T03:52:41.410Z,0.00
2022-12-06T03:53:41.409Z,0.00
2022-12-06T03:54:41.383Z,0.00
2022-12-06T03:55:41.379Z,0.00
2022-12-06T03:56:41.369Z,0.00
2022-12-06T03:57:41.358Z,0.00
2022-12-06T03:58:41.353Z,0.00
2022-12-06T03:59:41.361Z,0.00
2022-12-06T04:00:41.357Z,0.00
2022-12-06T04:01:41.389Z,0.00
2022-12-06T04:02:41.328Z,0.00
2022-12-06T04:03:41.365Z,0.00
2022-12-06T04:04:41.324Z,0.00
2022-12-06T04:05:41.343Z,0.00
2022-12-06T04:06:41.301Z,0.00
2022-12-06T04:07:41.325Z,0.00
2022-12-06T04:08:41.289Z,0.00
2022-12-06T04:09:41.285Z,0.00
2022-12-06T04:10:41.275Z,0.00
2022-12-06T04:11:41.287Z,0.00
2022-12-06T04:12:41.260Z,0.00
2022-12-06T04:13:41.266Z,0.00
2022-12-06T04:14:41.246Z,0.00
2022-12-06T04:15:41.311Z,0.00
2022-12-06T04:16:41.249Z,0.00
2022-12-06T04:17:41.236Z,0.00
2022-12-06T04:18:41.233Z,0.00
2022-12-06T04:19:41.234Z,0.00
2022-12-06T04:20:41.207Z,0.00
2022-12-06T04:21:41.203Z,0.00
2022-12-06T04:22:41.198Z,0.00
2022-12-06T04:23:41.196Z,0.00
2022-12-06T04:24:41.183Z,0.00
2022-12-06T04:25:41.203Z,0.00
2022-12-06T04:26:41.173Z,0.00
2022-12-06T04:27:41.167Z,0.00
2022-12-06T04:28:41.152Z,0.00
2022-12-06T04:29:41.150Z,0.00
2022-12-06T04:30:41.153Z,0.00
2022-12-06T04:31:41.224Z,0.00
2022-12-06T04:32:41.137Z,0.00
2022-12-06T04:33:41.130Z,0.00
2022-12-06T04:34:41.137Z,0.00
2022-12-06T04:35:41.128Z,0.00
2022-12-06T04:36:41.108Z,0.00
2022-12-06T04:37:41.102Z,0.00
2022-12-06T04:38:41.093Z,0.00
2022-12-06T04:39:41.113Z,0.00
2022-12-06T04:40:41.093Z,0.00
2022-12-06T04:41:41.112Z,0.00
2022-12-06T04:42:41.059Z,0.00
2022-12-06T04:43:41.058Z,0.00
2022-12-06T04:44:41.068Z,0.00
2022-12-06T04:45:41.061Z,0.00
2022-12-06T04:46:41.115Z,0.00
2022-12-06T04:47:41.054Z,0.00
2022-12-06T04:48:41.031Z,0.00
2022-12-06T04:49:41.028Z,0.00
2022-12-06T04:50:41.038Z,0.00
2022-12-06T04:51:41.017Z,0.00
2022-12-06T04:52:41.003Z,0.00
2022-12-06T04:53:40.995Z,0.00
2022-12-06T04:54:41.002Z,0.00
2022-12-06T04:55:40.988Z,0.00
2022-12-06T04:56:40.987Z,0.00
2022-12-06T04:57:40.970Z,0.00
2022-12-06T04:58:40.961Z,0.00
2022-12-06T04:59:41.002Z,0.00
2022-12-06T05:00:40.987Z,0.00
2022-12-06T05:01:40.948Z,0.00
2022-12-06T05:02:40.934Z,0.00
2022-12-06T05:03:44.155Z,0.00
2022-12-06T05:04:40.927Z,0.00
2022-12-06T05:05:40.941Z,0.00
2022-12-06T05:06:40.914Z,0.00
2022-12-06T05:07:40.954Z,0.00
2022-12-06T05:08:40.901Z,0.00
2022-12-06T05:09:40.896Z,0.00
2022-12-06T05:10:40.889Z,0.00
2022-12-06T05:11:40.883Z,0.00
2022-12-06T05:12:40.888Z,0.00
2022-12-06T05:13:40.862Z,0.00
2022-12-06T05:14:40.864Z,0.00
2022-12-06T05:15:40.863Z,0.00
2022-12-06T05:16:40.881Z,0.00
2022-12-06T05:17:40.856Z,0.00
2022-12-06T05:18:40.844Z,0.00
2022-12-06T05:19:40.833Z,0.00
2022-12-06T05:20:40.829Z,0.00
2022-12-06T05:21:40.833Z,0.00
2022-12-06T05:22:40.803Z,0.00
2022-12-06T05:23:40.805Z,0.00
2022-12-06T05:24:40.798Z,0.00
2022-12-06T05:25:40.790Z,0.00
2022-12-06T05:26:40.794Z,0.00
2022-12-06T05:27:40.791Z,0.00
2022-12-06T05:28:40.769Z,0.00
2022-12-06T05:29:40.769Z,0.00
2022-12-06T05:30:40.754Z,0.00
2022-12-06T05:31:40.812Z,0.00
2022-12-06T05:32:40.749Z,0.00
2022-12-06T05:33:40.800Z,0.00
2022-12-06T05:34:40.730Z,0.00
2022-12-06T05:35:40.729Z,0.00
2022-12-06T05:36:40.710Z,0.00
2022-12-06T05:37:40.712Z,0.00
2022-12-06T05:38:40.703Z,0.00
2022-12-06T05:39:40.722Z,0.00
2022-12-06T05:40:40.718Z,0.00
2022-12-06T05:41:40.691Z,0.00
2022-12-06T05:42:40.668Z,0.00
2022-12-06T05:43:40.683Z,0.00
2022-12-06T05:44:40.662Z,0.00
2022-12-06T05:45:40.722Z,0.00
2022-12-06T05:46:40.663Z,0.00
2022-12-06T05:47:40.653Z,0.00
2022-12-06T05:48:40.635Z,0.00
2022-12-06T05:49:40.636Z,0.00
2022-12-06T05:50:40.633Z,0.00
2022-12-06T05:51:40.613Z,0.00
2022-12-06T05:52:40.643Z,0.00
2022-12-06T05:53:40.603Z,0.00
2022-12-06T05:54:40.594Z,0.00
2022-12-06T05:55:40.606Z,0.00
2022-12-06T05:56:40.588Z,0.00
2022-12-06T05:57:45.611Z,0.00
2022-12-06T05:58:41.608Z,0.00
2022-12-06T05:59:40.564Z,0.00
2022-12-06T06:00:40.549Z,0.00
2022-12-06T06:01:40.602Z,0.00
2022-12-06T06:02:40.642Z,0.00
2022-12-06T06:03:46.954Z,0.00
2022-12-06T06:04:40.528Z,0.00
2022-12-06T06:05:40.520Z,0.00
2022-12-06T06:06:40.525Z,0.00
2022-12-06T06:07:40.585Z,0.00
2022-12-06T06:08:40.509Z,0.00
2022-12-06T06:09:40.499Z,0.00
2022-12-06T06:10:40.488Z,0.00
2022-12-06T06:11:40.480Z,0.00
2022-12-06T06:12:40.473Z,0.00
2022-12-06T06:13:40.488Z,0.00
2022-12-06T06:14:40.465Z,0.00
2022-12-06T06:15:40.474Z,0.00
2022-12-06T06:16:40.532Z,0.00
2022-12-06T06:17:40.451Z,0.00
2022-12-06T06:18:40.453Z,0.00
2022-12-06T06:19:40.439Z,0.00
2022-12-06T06:20:40.425Z,0.00
2022-12-06T06:21:40.443Z,0.00
2022-12-06T06:22:40.417Z,0.00
2022-12-06T06:23:40.405Z,0.00
2022-12-06T06:24:40.392Z,0.00
2022-12-06T06:25:40.391Z,0.00
2022-12-06T06:26:40.383Z,0.00
2022-12-06T06:27:40.403Z,0.00
2022-12-06T06:28:40.370Z,0.00
2022-12-06T06:29:45.153Z,0.00
2022-12-06T06:30:41.390Z,0.00
2022-12-06T06:31:40.413Z,0.00
2022-12-06T06:32:40.355Z,0.00
2022-12-06T06:33:40.360Z,0.00
2022-12-06T06:34:40.343Z,0.00
2022-12-06T06:35:40.347Z,1.00
2022-12-06T06:36:45.561Z,1.00
2022-12-06T06:37:40.323Z,1.00
2022-12-06T06:38:40.316Z,1.00
2022-12-06T06:39:40.310Z,1.00
2022-12-06T06:40:40.328Z,1.00
2022-12-06T06:41:40.296Z,1.00
2022-12-06T06:42:40.290Z,1.00
2022-12-06T06:43:40.282Z,1.00
2022-12-06T06:44:40.273Z,2.00
2022-12-06T06:45:40.296Z,1.00
2022-12-06T06:46:40.279Z,1.00
2022-12-06T06:47:40.257Z,1.00
2022-12-06T06:48:40.247Z,1.00
2022-12-06T06:49:40.246Z,2.00
2022-12-06T06:50:40.273Z,2.00
2022-12-06T06:51:40.232Z,2.00
2022-12-06T06:52:40.227Z,2.00
2022-12-06T06:53:40.222Z,1.00
2022-12-06T06:54:40.228Z,2.00
2022-12-06T06:55:40.209Z,2.00
2022-12-06T06:56:40.239Z,2.00
2022-12-06T06:57:40.199Z,3.00
2022-12-06T06:58:40.184Z,3.00
2022-12-06T06:59:40.181Z,3.00
2022-12-06T07:00:40.179Z,3.00
2022-12-06T07:01:40.248Z,4.00
2022-12-06T07:02:40.238Z,5.00
2022-12-06T07:03:40.157Z,5.00
2022-12-06T07:04:40.163Z,5.00
2022-12-06T07:05:40.151Z,5.00
2022-12-06T07:06:40.141Z,5.00
2022-12-06T07:07:40.188Z,5.00
2022-12-06T07:08:40.128Z,6.00
2022-12-06T07:09:40.125Z,7.00
2022-12-06T07:10:40.124Z,7.00
2022-12-06T07:11:40.115Z,9.00
2022-12-06T07:12:40.124Z,9.00
2022-12-06T07:13:40.105Z,11.00
2022-12-06T07:14:40.102Z,9.00
2022-12-06T07:15:40.086Z,10.00
2022-12-06T07:16:40.105Z,11.00
2022-12-06T07:17:40.078Z,12.00
2022-12-06T07:18:40.083Z,9.00
2022-12-06T07:19:40.058Z,8.00
2022-12-06T07:20:40.076Z,10.00
2022-12-06T07:21:40.056Z,11.00
2022-12-06T07:22:40.041Z,14.00
2022-12-06T07:23:40.041Z,16.00
2022-12-06T07:24:43.652Z,16.00
2022-12-06T07:25:41.063Z,16.00
2022-12-06T07:26:40.021Z,18.00
2022-12-06T07:27:40.013Z,20.00
2022-12-06T07:28:40.006Z,23.00
2022-12-06T07:29:40.010Z,21.00
2022-12-06T07:30:40.081Z,22.00
2022-12-06T07:31:40.052Z,24.00
2022-12-06T07:32:39.981Z,26.00
2022-12-06T07:33:39.984Z,26.00
2022-12-06T07:34:39.975Z,27.00
2022-12-06T07:36:10.956Z,27.00
2022-12-06T07:36:40.985Z,28.00
2022-12-06T07:37:39.958Z,28.00
2022-12-06T07:38:39.961Z,29.00
2022-12-06T07:39:39.949Z,30.00
2022-12-06T07:41:39.955Z,33.00
2022-12-06T07:42:39.926Z,34.00
2022-12-06T07:43:39.922Z,37.00
2022-12-06T07:44:39.936Z,38.00
2022-12-06T07:45:39.971Z,40.00
2022-12-06T07:46:39.914Z,40.00
2022-12-06T07:47:39.929Z,42.00
2022-12-06T07:48:39.893Z,43.00
2022-12-06T07:49:39.885Z,42.00
2022-12-06T07:50:39.891Z,45.00
2022-12-06T07:51:39.880Z,49.00
2022-12-06T07:52:39.876Z,48.00
2022-12-06T07:53:39.861Z,49.00
2022-12-06T07:54:39.867Z,51.00
2022-12-06T07:55:39.857Z,53.00
2022-12-06T07:56:39.843Z,53.00
2022-12-06T07:57:43.457Z,54.00
2022-12-06T07:58:39.829Z,57.00
2022-12-06T07:59:39.843Z,61.00
2022-12-06T08:00:39.838Z,63.00
2022-12-06T08:01:39.941Z,67.00
2022-12-06T08:02:39.823Z,67.00
2022-12-06T08:03:39.802Z,63.00
2022-12-06T08:04:39.871Z,62.00
2022-12-06T08:05:39.803Z,63.00
2022-12-06T08:06:39.786Z,64.00
2022-12-06T08:07:39.854Z,67.00
2022-12-06T08:08:39.771Z,69.00
2022-12-06T08:09:39.782Z,73.00
2022-12-06T08:10:39.755Z,77.00
2022-12-06T08:11:39.768Z,82.00
2022-12-06T08:12:39.754Z,89.00
2022-12-06T08:13:39.764Z,94.00
2022-12-06T08:14:39.737Z,100.00
2022-12-06T08:15:39.796Z,102.00
2022-12-06T08:16:39.717Z,106.00
2022-12-06T08:17:39.714Z,104.00
2022-12-06T08:18:39.714Z,106.00
2022-12-06T08:19:39.756Z,106.00
2022-12-06T08:20:39.695Z,107.00
2022-12-06T08:21:39.691Z,106.00
2022-12-06T08:22:39.690Z,105.00
2022-12-06T08:23:39.672Z,107.00
2022-12-06T08:24:39.659Z,104.00
2022-12-06T08:25:39.677Z,105.00
2022-12-06T08:26:39.652Z,105.00
2022-12-06T08:27:39.642Z,107.00
2022-12-06T08:28:39.635Z,107.00
2022-12-06T08:29:39.646Z,104.00
2022-12-06T08:30:39.693Z,104.00
2022-12-06T08:31:39.687Z,101.00
2022-12-06T08:32:39.613Z,99.00
2022-12-06T08:33:39.614Z,97.00
2022-12-06T08:34:39.602Z,95.00
2022-12-06T08:35:39.593Z,92.00
2022-12-06T08:36:39.603Z,92.00
2022-12-06T08:37:39.610Z,94.00
2022-12-06T08:38:39.572Z,102.00
2022-12-06T08:39:39.567Z,102.00
2022-12-06T08:40:39.563Z,99.00
2022-12-06T08:41:39.572Z,102.00
2022-12-06T08:42:39.560Z,101.00
2022-12-06T08:43:39.547Z,102.00
2022-12-06T08:44:39.538Z,102.00
2022-12-06T08:45:39.531Z,100.00
2022-12-06T08:46:39.585Z,102.00
2022-12-06T08:47:39.532Z,104.00
2022-12-06T08:48:42.977Z,103.00
2022-12-06T08:49:39.523Z,106.00
2022-12-06T08:50:39.496Z,109.00
2022-12-06T08:51:39.496Z,112.00
2022-12-06T08:52:39.484Z,114.00
2022-12-06T08:53:39.515Z,116.00
2022-12-06T08:54:39.488Z,116.00
2022-12-06T08:55:39.468Z,117.00
2022-12-06T08:56:39.457Z,114.00
2022-12-06T08:57:39.473Z,114.00
2022-12-06T08:58:39.444Z,115.00
2022-12-06T08:59:39.470Z,120.00
2022-12-06T09:00:39.436Z,121.00
2022-12-06T09:01:39.480Z,122.00
2022-12-06T09:02:39.448Z,123.00
2022-12-06T09:03:39.422Z,130.00
2022-12-06T09:04:39.497Z,139.00
2022-12-06T09:05:39.430Z,148.00
2022-12-06T09:06:39.420Z,155.00
2022-12-06T09:07:39.410Z,159.00
2022-12-06T09:08:39.390Z,160.00
2022-12-06T09:09:39.391Z,161.00
2022-12-06T09:10:39.373Z,161.00
2022-12-06T09:11:39.371Z,155.00
2022-12-06T09:12:39.382Z,153.00
2022-12-06T09:13:39.361Z,153.00
2022-12-06T09:14:39.358Z,152.00
2022-12-06T09:15:39.419Z,151.00
2022-12-06T09:16:39.343Z,148.00
2022-12-06T09:17:39.348Z,147.00
2022-12-06T09:18:39.328Z,145.00
2022-12-06T09:19:39.336Z,137.00
2022-12-06T09:20:39.322Z,133.00
2022-12-06T09:21:39.330Z,126.00
2022-12-06T09:22:39.308Z,122.00
2022-12-06T09:23:39.320Z,122.00
2022-12-06T09:24:39.305Z,126.00
2022-12-06T09:25:39.319Z,128.00
2022-12-06T09:26:39.302Z,130.00
2022-12-06T09:27:39.277Z,129.00
2022-12-06T09:28:39.300Z,128.00
2022-12-06T09:29:40.962Z,128.00
2022-12-06T09:30:39.281Z,127.00
2022-12-06T09:31:39.308Z,126.00
2022-12-06T09:32:39.247Z,127.00
2022-12-06T09:33:39.294Z,126.00
2022-12-06T09:34:39.252Z,128.00
2022-12-06T09:35:39.235Z,134.00
2022-12-06T09:36:39.227Z,137.00
2022-12-06T09:37:39.219Z,139.00
2022-12-06T09:38:39.220Z,143.00
2022-12-06T09:39:39.215Z,143.00
2022-12-06T09:40:42.843Z,146.00
2022-12-06T09:41:39.190Z,147.00
2022-12-06T09:42:39.218Z,147.00
2022-12-06T09:43:39.181Z,147.00
2022-12-06T09:44:39.165Z,146.00
2022-12-06T09:45:39.215Z,144.00
2022-12-06T09:46:39.218Z,141.00
2022-12-06T09:47:39.159Z,138.00
2022-12-06T09:48:41.795Z,138.00
2022-12-06T09:49:40.149Z,139.00
2022-12-06T09:50:39.133Z,137.00
2022-12-06T09:51:39.137Z,135.00
2022-12-06T09:52:39.118Z,138.00
2022-12-06T09:53:39.122Z,140.00
2022-12-06T09:54:39.108Z,141.00
2022-12-06T09:55:39.119Z,146.00
2022-12-06T09:56:39.110Z,151.00
2022-12-06T09:57:39.086Z,152.00
2022-12-06T09:58:39.079Z,147.00
2022-12-06T09:59:39.073Z,144.00
2022-12-06T10:00:39.098Z,139.00
2022-12-06T10:01:39.122Z,135.00
2022-12-06T10:02:39.152Z,130.00
2022-12-06T10:03:39.052Z,125.00
2022-12-06T10:04:39.051Z,126.00
2022-12-06T10:05:39.064Z,123.00
2022-12-06T10:06:39.029Z,130.00
2022-12-06T10:07:39.160Z,133.00
2022-12-06T10:08:39.151Z,129.00
2022-12-06T10:09:39.012Z,130.00
2022-12-06T10:10:39.014Z,129.00
2022-12-06T10:11:39.028Z,129.00
2022-12-06T10:12:39.001Z,131.00
2022-12-06T10:13:38.999Z,137.00
2022-12-06T10:14:38.985Z,141.00
2022-12-06T10:15:39.081Z,145.00
2022-12-06T10:16:39.006Z,149.00
2022-12-06T10:17:38.971Z,145.00
2022-12-06T10:18:38.950Z,141.00
2022-12-06T10:19:38.946Z,140.00
2022-12-06T10:20:38.943Z,141.00
2022-12-06T10:21:38.958Z,143.00
2022-12-06T10:22:38.932Z,146.00
2022-12-06T10:23:38.933Z,144.00
2022-12-06T10:24:38.927Z,145.00
2022-12-06T10:25:38.926Z,150.00
2022-12-06T10:26:38.914Z,151.00
2022-12-06T10:27:38.923Z,147.00
2022-12-06T10:28:38.891Z,145.00
2022-12-06T10:29:38.885Z,143.00
2022-12-06T10:30:38.895Z,141.00
2022-12-06T10:31:38.893Z,137.00
2022-12-06T10:32:38.856Z,133.00
2022-12-06T10:33:38.879Z,132.00
2022-12-06T10:34:40.303Z,135.00
2022-12-06T10:35:38.849Z,135.00
2022-12-06T10:36:38.850Z,135.00
2022-12-06T10:37:38.831Z,138.00
2022-12-06T10:38:38.825Z,138.00
2022-12-06T10:39:38.846Z,140.00
2022-12-06T10:40:38.858Z,139.00
2022-12-06T10:41:38.817Z,138.00
2022-12-06T10:42:38.809Z,138.00
2022-12-06T10:43:38.798Z,135.00
2022-12-06T10:44:38.783Z,135.00
2022-12-06T10:45:38.790Z,134.00
2022-12-06T10:46:38.860Z,137.00
2022-12-06T10:47:38.772Z,134.00
2022-12-06T10:48:38.760Z,132.00
2022-12-06T10:49:38.786Z,131.00
2022-12-06T10:50:38.760Z,131.00
2022-12-06T10:51:38.760Z,134.00
2022-12-06T10:52:38.737Z,140.00
2022-12-06T10:53:38.741Z,145.00
2022-12-06T10:54:38.749Z,150.00
2022-12-06T10:55:38.729Z,150.00
2022-12-06T10:56:38.714Z,155.00
2022-12-06T10:57:38.719Z,167.00
2022-12-06T10:58:38.708Z,168.00
2022-12-06T10:59:38.697Z,167.00
2022-12-06T11:00:38.738Z,165.00
2022-12-06T11:01:38.789Z,165.00
2022-12-06T11:02:38.742Z,172.00
2022-12-06T11:03:38.670Z,177.00
2022-12-06T11:04:38.662Z,179.00
2022-12-06T11:05:38.670Z,179.00
2022-12-06T11:06:38.662Z,180.00
2022-12-06T11:07:38.685Z,180.00
2022-12-06T11:08:38.674Z,182.00
2022-12-06T11:09:38.661Z,184.00
2022-12-06T11:10:38.627Z,186.00
2022-12-06T11:11:38.624Z,187.00
2022-12-06T11:12:38.615Z,188.00
2022-12-06T11:13:38.622Z,190.00
2022-12-06T11:14:38.682Z,188.00
2022-12-06T11:15:38.605Z,183.00
2022-12-06T11:16:38.625Z,178.00
2022-12-06T11:17:38.598Z,174.00
2022-12-06T11:18:38.595Z,177.00
2022-12-06T11:19:38.583Z,183.00
2022-12-06T11:20:38.586Z,187.00
2022-12-06T11:21:38.601Z,186.00
2022-12-06T11:22:38.551Z,188.00
2022-12-06T11:23:38.559Z,189.00
2022-12-06T11:24:41.926Z,192.00
2022-12-06T11:25:39.543Z,195.00
2022-12-06T11:26:38.535Z,200.00
2022-12-06T11:27:38.561Z,199.00
2022-12-06T11:28:38.553Z,195.00
2022-12-06T11:29:38.515Z,194.00
2022-12-06T11:30:38.498Z,199.00
2022-12-06T11:31:38.561Z,208.00
2022-12-06T11:32:38.483Z,216.00
2022-12-06T11:33:38.501Z,223.00
2022-12-06T11:34:38.502Z,230.00
2022-12-06T11:35:38.496Z,232.00
2022-12-06T11:36:38.461Z,234.00
2022-12-06T11:37:42.934Z,238.00
2022-12-06T11:38:39.569Z,237.00
2022-12-06T11:39:38.470Z,228.00
2022-12-06T11:40:38.438Z,225.00
2022-12-06T11:41:38.437Z,228.00
2022-12-06T11:42:38.435Z,226.00
2022-12-06T11:43:38.423Z,222.00
2022-12-06T11:44:38.430Z,220.00
2022-12-06T11:45:38.403Z,220.00
2022-12-06T11:46:38.457Z,223.00
2022-12-06T11:47:38.439Z,220.00
2022-12-06T11:48:38.387Z,211.00
2022-12-06T11:49:38.405Z,207.00
2022-12-06T11:50:38.380Z,204.00
2022-12-06T11:51:38.395Z,198.00
2022-12-06T11:52:38.382Z,196.00
2022-12-06T11:53:38.365Z,196.00
2022-12-06T11:54:38.350Z,200.00
2022-12-06T11:55:38.371Z,199.00
2022-12-06T11:56:38.358Z,195.00
2022-12-06T11:57:38.334Z,192.00
2022-12-06T11:58:38.325Z,187.00
2022-12-06T11:59:38.313Z,187.00
2022-12-06T12:00:38.357Z,182.00
2022-12-06T12:01:38.369Z,176.00
2022-12-06T12:02:38.365Z,169.00
2022-12-06T12:03:38.338Z,170.00
2022-12-06T12:04:38.281Z,170.00
2022-12-06T12:05:38.299Z,165.00
2022-12-06T12:06:38.276Z,153.00
2022-12-06T12:07:38.315Z,146.00
2022-12-06T12:08:38.268Z,141.00
2022-12-06T12:09:38.273Z,142.00
2022-12-06T12:10:38.266Z,142.00
2022-12-06T12:11:38.257Z,141.00
2022-12-06T12:12:38.250Z,141.00
2022-12-06T12:13:38.228Z,144.00
2022-12-06T12:14:38.226Z,150.00
2022-12-06T12:15:38.217Z,157.00
2022-12-06T12:16:38.258Z,160.00
2022-12-06T12:17:38.207Z,161.00
2022-12-06T12:18:38.208Z,159.00
2022-12-06T12:19:38.186Z,152.00
2022-12-06T12:20:38.213Z,143.00
2022-12-06T12:21:38.186Z,142.00
2022-12-06T12:22:38.185Z,142.00
2022-12-06T12:23:38.175Z,140.00
2022-12-06T12:24:56.406Z,139.00
2022-12-06T12:25:39.304Z,139.00
2022-12-06T12:26:38.142Z,141.00
2022-12-06T12:27:38.139Z,143.00
2022-12-06T12:28:38.128Z,148.00
2022-12-06T12:29:38.143Z,152.00
2022-12-06T12:30:38.153Z,151.00
2022-12-06T12:31:38.211Z,150.00
2022-12-06T12:32:38.104Z,147.00
2022-12-06T12:33:38.113Z,144.00
2022-12-06T12:34:42.749Z,143.00
2022-12-06T12:35:38.085Z,146.00
2022-12-06T12:36:38.116Z,149.00
2022-12-06T12:37:38.072Z,147.00
2022-12-06T12:38:38.072Z,141.00
2022-12-06T12:39:38.069Z,136.00
2022-12-06T12:40:38.060Z,136.00
2022-12-06T12:41:38.050Z,135.00
2022-12-06T12:42:38.057Z,132.00
2022-12-06T12:43:38.039Z,134.00
2022-12-06T12:44:39.353Z,136.00
2022-12-06T12:45:38.058Z,145.00
2022-12-06T12:46:38.096Z,151.00
2022-12-06T12:47:38.038Z,149.00
2022-12-06T12:48:38.029Z,145.00
2022-12-06T12:49:38.017Z,141.00
2022-12-06T12:50:37.992Z,137.00
2022-12-06T12:51:38.006Z,134.00
2022-12-06T12:52:37.999Z,130.00
2022-12-06T12:53:37.995Z,126.00
2022-12-06T12:54:37.992Z,122.00
2022-12-06T12:55:37.983Z,119.00
2022-12-06T12:56:37.970Z,118.00
2022-12-06T12:57:37.956Z,120.00
2022-12-06T12:58:37.999Z,121.00